Emerson, Kentucky
Current Conditions -  °F | °C
As of 11:30 AM on Saturday 20 Dec 2014 (Local Time) from KSYM Reporting Station
Overcast Overcast  
Wind Chill: 32°   Ceiling: 4600
Heat Index: 32°   Visibility: 8mi
Dew Point: 25°   Wind: 0mph
Humidity: 75%   Direction: NA
Pressure: 30.29"   Gusts: NA
Location:  38.35°N, 83.25°W
Report Text: KSYM 201630Z AUTO 00000KT 8SM FEW013 OVC046 M00/M04 A3029 RMK AO2
Loading
Personal Weather Stations






























Interactive Weather Map New forecast layout! Learn more

10-Day Weather Forecast

Advertisements
Track Severe Weather on mobile